sensor_id;sensor_type;location;lat;lon;timestamp;temperature;humidity
2465;DHT22;1244;54.326;10.074;2023-02-02T00:00:49;5.00;99.90
2465;DHT22;1244;54.326;10.074;2023-02-02T00:03:15;4.90;99.90
2465;DHT22;1244;54.326;10.074;2023-02-02T00:05:48;4.90;99.90
2465;DHT22;1244;54.326;10.074;2023-02-02T00:08:15;5.00;99.90
2465;DHT22;1244;54.326;10.074;2023-02-02T00:10:41;5.00;99.90
2465;DHT22;1244;54.326;10.074;2023-02-02T00:13:07;5.00;99.90
2465;DHT22;1244;54.326;10.074;2023-02-02T00:15:32;5.00;99.90
2465;DHT22;1244;54.326;10.074;2023-02-02T00:17:58;5.00;99.90
2465;DHT22;1244;54.326;10.074;2023-02-02T00:20:24;5.00;99.90
2465;DHT22;1244;54.326;10.074;2023-02-02T00:22:49;5.00;99.90
2465;DHT22;1244;54.326;10.074;2023-02-02T00:25:15;5.00;99.90
2465;DHT22;1244;54.326;10.074;2023-02-02T00:27:40;5.00;99.90
2465;DHT22;1244;54.326;10.074;2023-02-02T00:30:07;5.00;99.90
2465;DHT22;1244;54.326;10.074;2023-02-02T00:32:33;5.00;99.90
2465;DHT22;1244;54.326;10.074;2023-02-02T00:34:58;4.90;99.90
2465;DHT22;1244;54.326;10.074;2023-02-02T00:37:24;4.90;99.90
2465;DHT22;1244;54.326;10.074;2023-02-02T00:39:49;4.80;99.90
2465;DHT22;1244;54.326;10.074;2023-02-02T00:42:16;4.70;99.90
2465;DHT22;1244;54.326;10.074;2023-02-02T00:44:41;4.70;99.90
2465;DHT22;1244;54.326;10.074;2023-02-02T00:47:25;4.70;99.90
2465;DHT22;1244;54.326;10.074;2023-02-02T00:49:51;4.60;99.90
2465;DHT22;1244;54.326;10.074;2023-02-02T00:52:16;4.60;99.90
2465;DHT22;1244;54.326;10.074;2023-02-02T00:54:42;4.50;99.90
2465;DHT22;1244;54.326;10.074;2023-02-02T00:57:14;4.50;99.90
2465;DHT22;1244;54.326;10.074;2023-02-02T00:59:40;4.50;99.90
2465;DHT22;1244;54.326;10.074;2023-02-02T01:02:06;4.50;99.90
2465;DHT22;1244;54.326;10.074;2023-02-02T01:04:31;4.60;99.90
2465;DHT22;1244;54.326;10.074;2023-02-02T01:06:57;4.50;99.90
2465;DHT22;1244;54.326;10.074;2023-02-02T01:09:22;4.60;99.90
2465;DHT22;1244;54.326;10.074;2023-02-02T01:11:48;4.40;99.90
2465;DHT22;1244;54.326;10.074;2023-02-02T01:14:13;4.40;99.90
2465;DHT22;1244;54.326;10.074;2023-02-02T01:16:39;4.50;99.90
2465;DHT22;1244;54.326;10.074;2023-02-02T01:19:04;4.40;99.90
2465;DHT22;1244;54.326;10.074;2023-02-02T01:21:30;4.30;99.90
2465;DHT22;1244;54.326;10.074;2023-02-02T01:23:55;4.40;99.90
2465;DHT22;1244;54.326;10.074;2023-02-02T01:26:21;4.40;99.90
2465;DHT22;1244;54.326;10.074;2023-02-02T01:28:46;4.30;99.90
2465;DHT22;1244;54.326;10.074;2023-02-02T01:31:15;4.30;99.90
2465;DHT22;1244;54.326;10.074;2023-02-02T01:33:42;4.20;99.90
2465;DHT22;1244;54.326;10.074;2023-02-02T01:36:11;4.30;99.90
2465;DHT22;1244;54.326;10.074;2023-02-02T01:38:37;4.30;99.90
2465;DHT22;1244;54.326;10.074;2023-02-02T01:41:03;4.20;99.90
2465;DHT22;1244;54.326;10.074;2023-02-02T01:46:14;4.10;99.90
2465;DHT22;1244;54.326;10.074;2023-02-02T01:48:43;4.20;99.90
2465;DHT22;1244;54.326;10.074;2023-02-02T01:51:14;4.30;99.90
2465;DHT22;1244;54.326;10.074;2023-02-02T01:53:41;4.40;99.90
2465;DHT22;1244;54.326;10.074;2023-02-02T01:56:09;4.40;99.90
2465;DHT22;1244;54.326;10.074;2023-02-02T01:58:38;4.40;99.90
2465;DHT22;1244;54.326;10.074;2023-02-02T02:01:05;4.40;99.90
2465;DHT22;1244;54.326;10.074;2023-02-02T02:03:32;4.40;99.90
2465;DHT22;1244;54.326;10.074;2023-02-02T02:06:12;4.40;99.90
2465;DHT22;1244;54.326;10.074;2023-02-02T02:08:47;4.30;99.90
2465;DHT22;1244;54.326;10.074;2023-02-02T02:11:17;4.20;99.90
2465;DHT22;1244;54.326;10.074;2023-02-02T02:13:42;4.20;99.90
2465;DHT22;1244;54.326;10.074;2023-02-02T02:16:49;4.20;99.90
2465;DHT22;1244;54.326;10.074;2023-02-02T02:22:09;4.20;99.90
2465;DHT22;1244;54.326;10.074;2023-02-02T02:31:24;4.10;99.90
2465;DHT22;1244;54.326;10.074;2023-02-02T02:36:39;4.00;99.90
2465;DHT22;1244;54.326;10.074;2023-02-02T02:41:42;3.90;99.90
2465;DHT22;1244;54.326;10.074;2023-02-02T02:44:11;3.90;99.90
2465;DHT22;1244;54.326;10.074;2023-02-02T02:46:38;3.90;99.90
2465;DHT22;1244;54.326;10.074;2023-02-02T02:49:08;3.90;99.90
2465;DHT22;1244;54.326;10.074;2023-02-02T02:51:45;4.00;99.90
2465;DHT22;1244;54.326;10.074;2023-02-02T02:54:31;4.00;99.90
2465;DHT22;1244;54.326;10.074;2023-02-02T03:00:38;4.10;99.90
2465;DHT22;1244;54.326;10.074;2023-02-02T03:03:33;4.10;99.90
2465;DHT22;1244;54.326;10.074;2023-02-02T03:08:53;4.20;99.90
2465;DHT22;1244;54.326;10.074;2023-02-02T03:11:20;4.20;99.90
2465;DHT22;1244;54.326;10.074;2023-02-02T03:13:46;4.20;99.90
2465;DHT22;1244;54.326;10.074;2023-02-02T03:16:14;4.20;99.90
2465;DHT22;1244;54.326;10.074;2023-02-02T03:18:40;4.20;99.90
2465;DHT22;1244;54.326;10.074;2023-02-02T03:21:06;4.20;99.90
2465;DHT22;1244;54.326;10.074;2023-02-02T03:23:31;4.20;99.90
2465;DHT22;1244;54.326;10.074;2023-02-02T03:25:57;4.20;99.90
2465;DHT22;1244;54.326;10.074;2023-02-02T03:28:24;4.30;99.90
2465;DHT22;1244;54.326;10.074;2023-02-02T03:30:51;4.30;99.90
2465;DHT22;1244;54.326;10.074;2023-02-02T03:33:17;4.30;99.90
2465;DHT22;1244;54.326;10.074;2023-02-02T03:35:43;4.30;99.90
2465;DHT22;1244;54.326;10.074;2023-02-02T03:38:09;4.40;99.90
2465;DHT22;1244;54.326;10.074;2023-02-02T03:40:34;4.30;99.90
2465;DHT22;1244;54.326;10.074;2023-02-02T03:43:00;4.30;99.90
2465;DHT22;1244;54.326;10.074;2023-02-02T03:45:26;4.20;99.90
2465;DHT22;1244;54.326;10.074;2023-02-02T03:47:52;4.20;99.90
2465;DHT22;1244;54.326;10.074;2023-02-02T03:50:18;4.10;99.90
2465;DHT22;1244;54.326;10.074;2023-02-02T03:52:43;4.10;99.90
2465;DHT22;1244;54.326;10.074;2023-02-02T03:55:09;4.10;99.90
2465;DHT22;1244;54.326;10.074;2023-02-02T03:57:35;4.10;99.90
2465;DHT22;1244;54.326;10.074;2023-02-02T04:00:00;4.10;99.90
2465;DHT22;1244;54.326;10.074;2023-02-02T04:02:26;4.20;99.90
2465;DHT22;1244;54.326;10.074;2023-02-02T04:04:51;4.20;99.90
2465;DHT22;1244;54.326;10.074;2023-02-02T04:07:17;4.20;99.90
2465;DHT22;1244;54.326;10.074;2023-02-02T04:09:42;4.20;99.90
2465;DHT22;1244;54.326;10.074;2023-02-02T04:12:08;4.20;99.90
2465;DHT22;1244;54.326;10.074;2023-02-02T04:14:33;4.10;99.90
2465;DHT22;1244;54.326;10.074;2023-02-02T04:16:59;4.00;99.90
2465;DHT22;1244;54.326;10.074;2023-02-02T04:19:24;4.00;99.90
2465;DHT22;1244;54.326;10.074;2023-02-02T04:21:50;4.00;99.90
2465;DHT22;1244;54.326;10.074;2023-02-02T04:24:15;3.90;99.90
2465;DHT22;1244;54.326;10.074;2023-02-02T04:26:41;3.90;99.90
2465;DHT22;1244;54.326;10.074;2023-02-02T04:29:07;3.80;99.90
2465;DHT22;1244;54.326;10.074;2023-02-02T04:31:32;3.80;99.90
2465;DHT22;1244;54.326;10.074;2023-02-02T04:33:58;3.70;99.90
2465;DHT22;1244;54.326;10.074;2023-02-02T04:36:24;3.70;99.90
2465;DHT22;1244;54.326;10.074;2023-02-02T04:38:51;3.60;99.90
2465;DHT22;1244;54.326;10.074;2023-02-02T04:41:16;3.70;99.90
2465;DHT22;1244;54.326;10.074;2023-02-02T04:43:45;3.80;99.90
2465;DHT22;1244;54.326;10.074;2023-02-02T04:46:12;3.80;99.90
2465;DHT22;1244;54.326;10.074;2023-02-02T04:48:38;3.80;99.90
2465;DHT22;1244;54.326;10.074;2023-02-02T04:51:08;3.90;99.90
2465;DHT22;1244;54.326;10.074;2023-02-02T04:53:34;3.90;99.90
2465;DHT22;1244;54.326;10.074;2023-02-02T04:56:07;3.90;99.90
2465;DHT22;1244;54.326;10.074;2023-02-02T04:58:34;3.90;99.90
2465;DHT22;1244;54.326;10.074;2023-02-02T05:00:59;3.90;99.90
2465;DHT22;1244;54.326;10.074;2023-02-02T05:03:25;3.90;99.90
2465;DHT22;1244;54.326;10.074;2023-02-02T05:05:50;3.90;99.90
2465;DHT22;1244;54.326;10.074;2023-02-02T05:08:16;3.90;99.90
2465;DHT22;1244;54.326;10.074;2023-02-02T05:10:41;4.00;99.90
2465;DHT22;1244;54.326;10.074;2023-02-02T05:13:07;4.00;99.90
2465;DHT22;1244;54.326;10.074;2023-02-02T05:15:33;4.00;99.90
2465;DHT22;1244;54.326;10.074;2023-02-02T05:17:59;4.00;99.90
2465;DHT22;1244;54.326;10.074;2023-02-02T05:20:24;4.00;99.90
2465;DHT22;1244;54.326;10.074;2023-02-02T05:22:50;4.10;99.90
2465;DHT22;1244;54.326;10.074;2023-02-02T05:25:16;4.10;99.90
2465;DHT22;1244;54.326;10.074;2023-02-02T05:27:42;4.10;99.90
2465;DHT22;1244;54.326;10.074;2023-02-02T05:30:10;4.10;99.90
2465;DHT22;1244;54.326;10.074;2023-02-02T05:32:35;4.10;99.90
2465;DHT22;1244;54.326;10.074;2023-02-02T05:35:01;4.10;99.90
2465;DHT22;1244;54.326;10.074;2023-02-02T05:37:26;4.10;99.90
2465;DHT22;1244;54.326;10.074;2023-02-02T05:39:52;4.20;99.90
2465;DHT22;1244;54.326;10.074;2023-02-02T05:42:18;4.20;99.90
2465;DHT22;1244;54.326;10.074;2023-02-02T05:44:43;4.20;99.90
2465;DHT22;1244;54.326;10.074;2023-02-02T05:47:09;4.20;99.90
2465;DHT22;1244;54.326;10.074;2023-02-02T05:49:34;4.20;99.90
2465;DHT22;1244;54.326;10.074;2023-02-02T05:52:00;4.30;99.90
2465;DHT22;1244;54.326;10.074;2023-02-02T05:54:25;4.30;99.90
2465;DHT22;1244;54.326;10.074;2023-02-02T05:56:52;4.30;99.90
2465;DHT22;1244;54.326;10.074;2023-02-02T05:59:19;4.30;99.90
2465;DHT22;1244;54.326;10.074;2023-02-02T06:01:45;4.30;99.90
2465;DHT22;1244;54.326;10.074;2023-02-02T06:04:11;4.30;99.90
2465;DHT22;1244;54.326;10.074;2023-02-02T06:06:36;4.30;99.90
2465;DHT22;1244;54.326;10.074;2023-02-02T06:09:04;4.30;99.90
2465;DHT22;1244;54.326;10.074;2023-02-02T06:11:30;4.30;99.90
2465;DHT22;1244;54.326;10.074;2023-02-02T06:13:55;4.30;99.90
2465;DHT22;1244;54.326;10.074;2023-02-02T06:16:21;4.30;99.90
2465;DHT22;1244;54.326;10.074;2023-02-02T06:18:47;4.30;99.90
2465;DHT22;1244;54.326;10.074;2023-02-02T06:21:13;4.30;99.90
2465;DHT22;1244;54.326;10.074;2023-02-02T06:23:39;4.30;99.90
2465;DHT22;1244;54.326;10.074;2023-02-02T06:26:11;4.30;99.90
2465;DHT22;1244;54.326;10.074;2023-02-02T06:28:36;4.30;99.90
2465;DHT22;1244;54.326;10.074;2023-02-02T06:31:04;4.20;99.90
2465;DHT22;1244;54.326;10.074;2023-02-02T06:33:29;4.20;99.90
2465;DHT22;1244;54.326;10.074;2023-02-02T06:35:58;4.20;99.90
2465;DHT22;1244;54.326;10.074;2023-02-02T06:38:24;4.30;99.90
2465;DHT22;1244;54.326;10.074;2023-02-02T06:40:50;4.20;99.90
2465;DHT22;1244;54.326;10.074;2023-02-02T06:43:15;4.10;99.90
2465;DHT22;1244;54.326;10.074;2023-02-02T06:45:41;4.20;99.90
2465;DHT22;1244;54.326;10.074;2023-02-02T06:48:06;4.10;99.90
2465;DHT22;1244;54.326;10.074;2023-02-02T06:50:35;4.00;99.90
2465;DHT22;1244;54.326;10.074;2023-02-02T06:53:01;4.00;99.90
2465;DHT22;1244;54.326;10.074;2023-02-02T06:55:27;3.90;99.90
2465;DHT22;1244;54.326;10.074;2023-02-02T06:57:56;3.90;99.90
2465;DHT22;1244;54.326;10.074;2023-02-02T07:00:22;3.80;99.90
2465;DHT22;1244;54.326;10.074;2023-02-02T07:02:48;3.80;99.90
2465;DHT22;1244;54.326;10.074;2023-02-02T07:05:13;3.80;99.90
2465;DHT22;1244;54.326;10.074;2023-02-02T07:07:39;3.70;99.90
2465;DHT22;1244;54.326;10.074;2023-02-02T07:10:05;3.70;99.90
2465;DHT22;1244;54.326;10.074;2023-02-02T07:12:30;3.80;99.90
2465;DHT22;1244;54.326;10.074;2023-02-02T07:14:56;3.80;99.90
2465;DHT22;1244;54.326;10.074;2023-02-02T07:17:23;3.80;99.90
2465;DHT22;1244;54.326;10.074;2023-02-02T07:19:49;3.80;99.90
2465;DHT22;1244;54.326;10.074;2023-02-02T07:22:14;3.80;99.90
2465;DHT22;1244;54.326;10.074;2023-02-02T07:24:40;3.80;99.90
2465;DHT22;1244;54.326;10.074;2023-02-02T07:27:05;3.70;99.90
2465;DHT22;1244;54.326;10.074;2023-02-02T07:29:31;3.70;99.90
2465;DHT22;1244;54.326;10.074;2023-02-02T07:31:57;3.70;99.90
2465;DHT22;1244;54.326;10.074;2023-02-02T07:34:22;3.60;99.90
2465;DHT22;1244;54.326;10.074;2023-02-02T07:36:48;3.60;99.90
2465;DHT22;1244;54.326;10.074;2023-02-02T07:39:14;3.60;99.90
2465;DHT22;1244;54.326;10.074;2023-02-02T07:41:40;3.60;99.90
2465;DHT22;1244;54.326;10.074;2023-02-02T07:44:11;3.60;99.90
2465;DHT22;1244;54.326;10.074;2023-02-02T07:46:40;3.60;99.90
2465;DHT22;1244;54.326;10.074;2023-02-02T07:49:06;3.60;99.90
2465;DHT22;1244;54.326;10.074;2023-02-02T07:51:31;3.60;99.90
2465;DHT22;1244;54.326;10.074;2023-02-02T07:53:57;3.60;99.90
2465;DHT22;1244;54.326;10.074;2023-02-02T07:56:25;3.70;99.90
2465;DHT22;1244;54.326;10.074;2023-02-02T07:58:53;3.70;99.90
2465;DHT22;1244;54.326;10.074;2023-02-02T08:01:19;3.70;99.90
2465;DHT22;1244;54.326;10.074;2023-02-02T08:03:47;3.70;99.90
2465;DHT22;1244;54.326;10.074;2023-02-02T08:06:21;3.70;99.90
2465;DHT22;1244;54.326;10.074;2023-02-02T08:08:47;3.70;99.90
2465;DHT22;1244;54.326;10.074;2023-02-02T08:11:15;3.80;99.90
2465;DHT22;1244;54.326;10.074;2023-02-02T08:13:42;3.80;99.90
2465;DHT22;1244;54.326;10.074;2023-02-02T08:16:08;3.90;99.90
2465;DHT22;1244;54.326;10.074;2023-02-02T08:18:34;4.00;99.90
2465;DHT22;1244;54.326;10.074;2023-02-02T08:21:01;4.10;99.90
2465;DHT22;1244;54.326;10.074;2023-02-02T08:23:27;4.20;99.90
2465;DHT22;1244;54.326;10.074;2023-02-02T08:25:53;4.20;99.90
2465;DHT22;1244;54.326;10.074;2023-02-02T08:28:19;4.20;99.90
2465;DHT22;1244;54.326;10.074;2023-02-02T08:30:45;4.10;99.90
2465;DHT22;1244;54.326;10.074;2023-02-02T08:33:11;4.30;99.90
2465;DHT22;1244;54.326;10.074;2023-02-02T08:35:41;4.50;99.90
2465;DHT22;1244;54.326;10.074;2023-02-02T08:38:07;4.60;99.90
2465;DHT22;1244;54.326;10.074;2023-02-02T08:40:32;4.40;99.90
2465;DHT22;1244;54.326;10.074;2023-02-02T08:42:58;4.50;99.90
2465;DHT22;1244;54.326;10.074;2023-02-02T08:45:24;4.70;99.90
2465;DHT22;1244;54.326;10.074;2023-02-02T08:47:50;4.70;99.90
2465;DHT22;1244;54.326;10.074;2023-02-02T08:50:16;4.90;99.90
2465;DHT22;1244;54.326;10.074;2023-02-02T08:52:42;5.00;99.90
2465;DHT22;1244;54.326;10.074;2023-02-02T08:55:08;5.00;99.90
2465;DHT22;1244;54.326;10.074;2023-02-02T08:57:33;5.10;99.90
2465;DHT22;1244;54.326;10.074;2023-02-02T08:59:59;5.30;99.90
2465;DHT22;1244;54.326;10.074;2023-02-02T09:02:24;5.40;99.90
2465;DHT22;1244;54.326;10.074;2023-02-02T09:04:50;5.40;99.90
2465;DHT22;1244;54.326;10.074;2023-02-02T09:07:15;5.50;99.90
2465;DHT22;1244;54.326;10.074;2023-02-02T09:09:41;5.50;99.90
2465;DHT22;1244;54.326;10.074;2023-02-02T09:12:07;5.60;99.90
2465;DHT22;1244;54.326;10.074;2023-02-02T09:14:32;5.60;99.90
2465;DHT22;1244;54.326;10.074;2023-02-02T09:16:57;5.60;99.90
2465;DHT22;1244;54.326;10.074;2023-02-02T09:19:23;5.60;99.90
2465;DHT22;1244;54.326;10.074;2023-02-02T09:21:49;5.90;99.90
2465;DHT22;1244;54.326;10.074;2023-02-02T09:24:16;6.00;99.90
2465;DHT22;1244;54.326;10.074;2023-02-02T09:26:43;6.00;99.90
2465;DHT22;1244;54.326;10.074;2023-02-02T09:29:14;6.10;99.90
2465;DHT22;1244;54.326;10.074;2023-02-02T09:31:40;6.10;99.90
2465;DHT22;1244;54.326;10.074;2023-02-02T09:34:09;6.60;99.90
2465;DHT22;1244;54.326;10.074;2023-02-02T09:36:35;6.70;99.90
2465;DHT22;1244;54.326;10.074;2023-02-02T09:39:02;6.50;99.90
2465;DHT22;1244;54.326;10.074;2023-02-02T09:47:20;7.10;99.90
2465;DHT22;1244;54.326;10.074;2023-02-02T09:52:30;7.10;99.90
2465;DHT22;1244;54.326;10.074;2023-02-02T09:57:48;7.00;99.90
2465;DHT22;1244;54.326;10.074;2023-02-02T10:00:30;7.20;99.90
2465;DHT22;1244;54.326;10.074;2023-02-02T10:03:18;7.50;99.90
2465;DHT22;1244;54.326;10.074;2023-02-02T10:06:01;7.80;99.90
2465;DHT22;1244;54.326;10.074;2023-02-02T10:08:33;8.00;99.90
2465;DHT22;1244;54.326;10.074;2023-02-02T10:11:07;8.40;99.90
2465;DHT22;1244;54.326;10.074;2023-02-02T10:13:37;8.50;99.90
2465;DHT22;1244;54.326;10.074;2023-02-02T10:16:09;8.30;99.90
2465;DHT22;1244;54.326;10.074;2023-02-02T10:19:00;7.60;99.90
2465;DHT22;1244;54.326;10.074;2023-02-02T10:24:02;8.60;99.90
2465;DHT22;1244;54.326;10.074;2023-02-02T10:26:42;8.90;99.90
2465;DHT22;1244;54.326;10.074;2023-02-02T10:34:43;10.10;99.90
2465;DHT22;1244;54.326;10.074;2023-02-02T10:37:31;10.30;99.90
2465;DHT22;1244;54.326;10.074;2023-02-02T10:45:56;11.80;99.90
2465;DHT22;1244;54.326;10.074;2023-02-02T10:48:27;11.80;99.90
2465;DHT22;1244;54.326;10.074;2023-02-02T10:51:01;12.20;99.90
2465;DHT22;1244;54.326;10.074;2023-02-02T10:53:29;12.20;99.90
2465;DHT22;1244;54.326;10.074;2023-02-02T10:56:04;11.80;99.90
2465;DHT22;1244;54.326;10.074;2023-02-02T10:58:34;11.20;99.90
2465;DHT22;1244;54.326;10.074;2023-02-02T11:01:02;11.80;99.90
2465;DHT22;1244;54.326;10.074;2023-02-02T11:03:32;11.10;99.90
2465;DHT22;1244;54.326;10.074;2023-02-02T11:06:00;10.90;99.90
2465;DHT22;1244;54.326;10.074;2023-02-02T11:08:48;11.60;99.90
2465;DHT22;1244;54.326;10.074;2023-02-02T11:11:20;12.30;99.90
2465;DHT22;1244;54.326;10.074;2023-02-02T11:13:54;12.80;99.90
2465;DHT22;1244;54.326;10.074;2023-02-02T11:16:25;11.20;99.90
2465;DHT22;1244;54.326;10.074;2023-02-02T11:18:51;11.90;99.90
2465;DHT22;1244;54.326;10.074;2023-02-02T11:21:32;11.00;99.90
2465;DHT22;1244;54.326;10.074;2023-02-02T11:24:04;11.00;99.90
2465;DHT22;1244;54.326;10.074;2023-02-02T11:26:49;11.70;99.90
2465;DHT22;1244;54.326;10.074;2023-02-02T11:31:46;12.00;99.90
2465;DHT22;1244;54.326;10.074;2023-02-02T11:34:24;12.60;99.90
2465;DHT22;1244;54.326;10.074;2023-02-02T11:37:02;11.80;99.90
2465;DHT22;1244;54.326;10.074;2023-02-02T11:39:33;12.30;99.90
2465;DHT22;1244;54.326;10.074;2023-02-02T11:42:19;13.40;99.90
2465;DHT22;1244;54.326;10.074;2023-02-02T11:47:31;14.20;99.90
2465;DHT22;1244;54.326;10.074;2023-02-02T11:50:00;14.40;99.90
2465;DHT22;1244;54.326;10.074;2023-02-02T11:52:28;14.70;99.90
2465;DHT22;1244;54.326;10.074;2023-02-02T11:54:57;14.60;99.90
2465;DHT22;1244;54.326;10.074;2023-02-02T11:57:25;14.80;99.90
2465;DHT22;1244;54.326;10.074;2023-02-02T12:02:45;14.70;99.90
2465;DHT22;1244;54.326;10.074;2023-02-02T12:07:48;15.70;99.90
2465;DHT22;1244;54.326;10.074;2023-02-02T12:10:27;15.90;99.90
2465;DHT22;1244;54.326;10.074;2023-02-02T12:13:04;15.70;99.90
2465;DHT22;1244;54.326;10.074;2023-02-02T12:18:40;17.30;99.90
2465;DHT22;1244;54.326;10.074;2023-02-02T12:21:43;16.90;99.90
2465;DHT22;1244;54.326;10.074;2023-02-02T12:24:34;16.20;99.90
2465;DHT22;1244;54.326;10.074;2023-02-02T12:27:09;13.80;99.90
2465;DHT22;1244;54.326;10.074;2023-02-02T12:35:31;10.30;99.90
2465;DHT22;1244;54.326;10.074;2023-02-02T12:38:45;10.50;99.90
2465;DHT22;1244;54.326;10.074;2023-02-02T13:01:28;12.30;99.90
2465;DHT22;1244;54.326;10.074;2023-02-02T13:09:16;10.10;99.90
2465;DHT22;1244;54.326;10.074;2023-02-02T13:11:49;11.10;99.90
2465;DHT22;1244;54.326;10.074;2023-02-02T13:16:56;13.30;99.90
2465;DHT22;1244;54.326;10.074;2023-02-02T13:22:00;11.20;99.90
2465;DHT22;1244;54.326;10.074;2023-02-02T13:24:30;10.20;99.90
2465;DHT22;1244;54.326;10.074;2023-02-02T13:26:59;9.70;99.90
2465;DHT22;1244;54.326;10.074;2023-02-02T13:29:33;9.30;99.90
2465;DHT22;1244;54.326;10.074;2023-02-02T13:32:27;8.90;99.90
2465;DHT22;1244;54.326;10.074;2023-02-02T13:34:59;9.10;99.90
2465;DHT22;1244;54.326;10.074;2023-02-02T13:40:05;9.80;99.90
2465;DHT22;1244;54.326;10.074;2023-02-02T13:45:34;10.00;99.90
2465;DHT22;1244;54.326;10.074;2023-02-02T13:59:40;11.20;99.90
2465;DHT22;1244;54.326;10.074;2023-02-02T14:02:20;11.70;99.90
2465;DHT22;1244;54.326;10.074;2023-02-02T14:04:54;12.10;99.90
2465;DHT22;1244;54.326;10.074;2023-02-02T14:07:37;12.10;99.90
2465;DHT22;1244;54.326;10.074;2023-02-02T14:10:05;11.80;99.90
2465;DHT22;1244;54.326;10.074;2023-02-02T14:12:33;11.80;99.90
2465;DHT22;1244;54.326;10.074;2023-02-02T14:15:00;11.80;99.90
2465;DHT22;1244;54.326;10.074;2023-02-02T14:20:00;12.60;99.90
2465;DHT22;1244;54.326;10.074;2023-02-02T14:22:46;12.20;99.90
2465;DHT22;1244;54.326;10.074;2023-02-02T14:27:57;11.50;99.90
2465;DHT22;1244;54.326;10.074;2023-02-02T14:30:26;11.20;99.90
2465;DHT22;1244;54.326;10.074;2023-02-02T14:32:52;11.00;99.90
2465;DHT22;1244;54.326;10.074;2023-02-02T14:37:55;10.90;99.90
2465;DHT22;1244;54.326;10.074;2023-02-02T14:40:50;10.50;99.90
2465;DHT22;1244;54.326;10.074;2023-02-02T14:49:26;9.50;99.90
2465;DHT22;1244;54.326;10.074;2023-02-02T14:51:28;9.20;99.90
2465;DHT22;1244;54.326;10.074;2023-02-02T14:53:58;9.00;99.90
2465;DHT22;1244;54.326;10.074;2023-02-02T14:56:47;8.90;99.90
2465;DHT22;1244;54.326;10.074;2023-02-02T14:59:38;8.80;99.90
2465;DHT22;1244;54.326;10.074;2023-02-02T15:04:35;8.20;99.90
2465;DHT22;1244;54.326;10.074;2023-02-02T15:09:57;8.20;99.90
2465;DHT22;1244;54.326;10.074;2023-02-02T15:12:33;8.00;99.90
2465;DHT22;1244;54.326;10.074;2023-02-02T15:15:19;7.90;99.90
2465;DHT22;1244;54.326;10.074;2023-02-02T15:18:10;7.80;99.90
2465;DHT22;1244;54.326;10.074;2023-02-02T15:20:45;7.70;99.90
2465;DHT22;1244;54.326;10.074;2023-02-02T15:23:32;7.70;99.90
2465;DHT22;1244;54.326;10.074;2023-02-02T15:28:56;7.50;99.90
2465;DHT22;1244;54.326;10.074;2023-02-02T15:31:36;7.50;99.90
2465;DHT22;1244;54.326;10.074;2023-02-02T15:34:13;7.40;99.90
2465;DHT22;1244;54.326;10.074;2023-02-02T15:36:42;7.40;99.90
2465;DHT22;1244;54.326;10.074;2023-02-02T15:39:38;7.20;99.90
2465;DHT22;1244;54.326;10.074;2023-02-02T15:42:14;7.10;99.90
2465;DHT22;1244;54.326;10.074;2023-02-02T15:44:59;7.30;99.90
2465;DHT22;1244;54.326;10.074;2023-02-02T15:47:30;7.20;99.90
2465;DHT22;1244;54.326;10.074;2023-02-02T15:49:57;7.00;99.90
2465;DHT22;1244;54.326;10.074;2023-02-02T15:52:28;6.90;99.90
2465;DHT22;1244;54.326;10.074;2023-02-02T15:54:58;6.80;99.90
2465;DHT22;1244;54.326;10.074;2023-02-02T15:57:35;6.70;99.90
2465;DHT22;1244;54.326;10.074;2023-02-02T16:02:46;6.50;99.90
2465;DHT22;1244;54.326;10.074;2023-02-02T16:07:58;6.50;99.90
2465;DHT22;1244;54.326;10.074;2023-02-02T16:10:24;6.50;99.90
2465;DHT22;1244;54.326;10.074;2023-02-02T16:12:50;6.30;99.90
2465;DHT22;1244;54.326;10.074;2023-02-02T16:15:22;6.30;99.90
2465;DHT22;1244;54.326;10.074;2023-02-02T16:18:05;6.10;99.90
2465;DHT22;1244;54.326;10.074;2023-02-02T16:20:37;6.00;99.90
2465;DHT22;1244;54.326;10.074;2023-02-02T16:23:05;5.90;99.90
2465;DHT22;1244;54.326;10.074;2023-02-02T16:25:43;6.00;99.90
2465;DHT22;1244;54.326;10.074;2023-02-02T16:28:13;6.00;99.90
2465;DHT22;1244;54.326;10.074;2023-02-02T16:30:39;6.00;99.90
2465;DHT22;1244;54.326;10.074;2023-02-02T16:33:35;6.00;99.90
2465;DHT22;1244;54.326;10.074;2023-02-02T16:36:02;5.80;99.90
2465;DHT22;1244;54.326;10.074;2023-02-02T16:38:35;5.70;99.90
2465;DHT22;1244;54.326;10.074;2023-02-02T16:41:23;5.90;99.90
2465;DHT22;1244;54.326;10.074;2023-02-02T16:43:50;5.80;99.90
2465;DHT22;1244;54.326;10.074;2023-02-02T16:49:02;5.70;99.90
2465;DHT22;1244;54.326;10.074;2023-02-02T16:51:31;5.70;99.90
2465;DHT22;1244;54.326;10.074;2023-02-02T16:54:00;5.80;99.90
2465;DHT22;1244;54.326;10.074;2023-02-02T16:56:31;5.70;99.90
2465;DHT22;1244;54.326;10.074;2023-02-02T16:59:01;5.70;99.90
2465;DHT22;1244;54.326;10.074;2023-02-02T17:01:41;5.50;99.90
2465;DHT22;1244;54.326;10.074;2023-02-02T17:04:20;5.30;99.90
2465;DHT22;1244;54.326;10.074;2023-02-02T17:06:47;5.30;99.90
2465;DHT22;1244;54.326;10.074;2023-02-02T17:14:54;5.10;99.90
2465;DHT22;1244;54.326;10.074;2023-02-02T17:17:21;5.20;99.90
2465;DHT22;1244;54.326;10.074;2023-02-02T17:19:47;5.40;99.90
2465;DHT22;1244;54.326;10.074;2023-02-02T17:22:14;5.30;99.90
2465;DHT22;1244;54.326;10.074;2023-02-02T17:24:43;5.20;99.90
2465;DHT22;1244;54.326;10.074;2023-02-02T17:27:26;5.20;99.90
2465;DHT22;1244;54.326;10.074;2023-02-02T17:29:53;5.20;99.90
2465;DHT22;1244;54.326;10.074;2023-02-02T17:32:19;5.20;99.90
2465;DHT22;1244;54.326;10.074;2023-02-02T17:34:44;5.20;99.90
2465;DHT22;1244;54.326;10.074;2023-02-02T17:37:10;5.20;99.90
2465;DHT22;1244;54.326;10.074;2023-02-02T17:39:36;5.30;99.90
2465;DHT22;1244;54.326;10.074;2023-02-02T17:42:03;5.40;99.90
2465;DHT22;1244;54.326;10.074;2023-02-02T17:44:29;5.40;99.90
2465;DHT22;1244;54.326;10.074;2023-02-02T17:47:24;5.30;99.90
2465;DHT22;1244;54.326;10.074;2023-02-02T17:49:49;5.20;99.90
2465;DHT22;1244;54.326;10.074;2023-02-02T17:52:16;5.30;99.90
2465;DHT22;1244;54.326;10.074;2023-02-02T17:54:42;5.30;99.90
2465;DHT22;1244;54.326;10.074;2023-02-02T17:57:07;5.30;99.90
2465;DHT22;1244;54.326;10.074;2023-02-02T17:59:42;5.20;99.90
2465;DHT22;1244;54.326;10.074;2023-02-02T18:02:11;5.00;99.90
2465;DHT22;1244;54.326;10.074;2023-02-02T18:04:38;4.90;99.90
2465;DHT22;1244;54.326;10.074;2023-02-02T18:07:03;5.00;99.90
2465;DHT22;1244;54.326;10.074;2023-02-02T18:09:44;4.90;99.90
2465;DHT22;1244;54.326;10.074;2023-02-02T18:12:09;5.10;99.90
2465;DHT22;1244;54.326;10.074;2023-02-02T18:14:35;5.30;99.90
2465;DHT22;1244;54.326;10.074;2023-02-02T18:17:02;5.10;99.90
2465;DHT22;1244;54.326;10.074;2023-02-02T18:19:29;5.20;99.90
2465;DHT22;1244;54.326;10.074;2023-02-02T18:24:39;5.40;99.90
2465;DHT22;1244;54.326;10.074;2023-02-02T18:27:05;5.40;99.90
2465;DHT22;1244;54.326;10.074;2023-02-02T18:29:31;5.50;99.90
2465;DHT22;1244;54.326;10.074;2023-02-02T18:31:57;5.40;99.90
2465;DHT22;1244;54.326;10.074;2023-02-02T18:34:46;5.40;99.90
2465;DHT22;1244;54.326;10.074;2023-02-02T18:37:16;5.40;99.90
2465;DHT22;1244;54.326;10.074;2023-02-02T18:39:41;5.20;99.90
2465;DHT22;1244;54.326;10.074;2023-02-02T18:42:09;5.20;99.90
2465;DHT22;1244;54.326;10.074;2023-02-02T18:44:35;5.20;99.90
2465;DHT22;1244;54.326;10.074;2023-02-02T18:47:03;5.10;99.90
2465;DHT22;1244;54.326;10.074;2023-02-02T18:49:28;5.20;99.90